Time;durP1;ratioP1;P1;durP2;ratioP2;P2;SDS_P1;SDS_P2;PMS_P1;PMS_P2;Temp;Humidity;BMP_temperature;BMP_pressure;BME280_temperature;BME280_humidity;BME280_pressure;Samples;Min_cycle;Max_cycle;Signal;HPM_P1;HPM_P2
2021/01/07 00:01:35;;;;;;;;;;;;;;;8.85;50.51;100734.16;6163932;23;20512;-78
2021/01/07 00:04:02;;;;;;;;;;;;;;;8.82;50.08;100727.19;6185109;23;19925;-78
2021/01/07 00:06:29;;;;;;;;;;;;;;;8.83;50.24;100723.66;6183762;23;19991;-78
2021/01/07 00:08:56;;;;;;;;;;;;;;;8.80;50.60;100721.94;6188311;23;20364;-77
2021/01/07 00:11:23;;;;;;;;;;;;;;;8.77;50.56;100724.66;6190047;23;19950;-77
2021/01/07 00:13:50;;;;;;;;;;;;;;;8.76;50.21;100722.91;6163652;23;20300;-78
2021/01/07 00:16:18;;;;;;;;;;;;;;;8.75;50.71;100713.25;6184356;23;20273;-77
2021/01/07 00:18:45;;;;;;;;;;;;;;;8.72;50.95;100720.34;6157399;22;19929;-77
2021/01/07 00:21:12;;;;;;;;;;;;;;;8.71;51.28;100714.22;6159059;23;19952;-78
2021/01/07 00:23:39;;;;;;;;;;;;;;;8.69;51.02;100716.00;6188577;23;19931;-78
2021/01/07 00:26:06;;;;;;;;;;;;;;;8.69;50.97;100713.38;6164275;23;19920;-78
2021/01/07 00:28:33;;;;;;;;;;;;;;;8.65;50.86;100709.06;6189927;23;19920;-78
2021/01/07 00:31:00;;;;;;;;;;;;;;;8.66;51.20;100705.53;6160224;23;19948;-78
2021/01/07 00:33:28;;;;;;;;;;;;;;;8.62;51.26;100702.06;6183356;23;19954;-78
2021/01/07 00:35:54;;;;;;;;;;;;;;;8.61;51.29;100702.09;6162907;23;19968;-78
2021/01/07 00:38:21;;;;;;;;;;;;;;;8.59;51.45;100699.50;6189138;23;20007;-78
2021/01/07 00:40:48;;;;;;;;;;;;;;;8.59;51.50;100699.50;6189506;23;19927;-78
2021/01/07 00:43:15;;;;;;;;;;;;;;;8.57;51.72;100713.63;6163774;23;19924;-78
2021/01/07 00:45:42;;;;;;;;;;;;;;;8.54;51.39;100706.63;6184263;23;19920;-78
2021/01/07 00:48:09;;;;;;;;;;;;;;;8.54;51.36;100705.78;6183546;23;19968;-78
2021/01/07 00:50:37;;;;;;;;;;;;;;;8.54;51.68;100708.41;6188287;23;19924;-78
2021/01/07 00:53:05;;;;;;;;;;;;;;;8.51;51.75;100706.72;6162770;23;20198;-77
2021/01/07 00:55:32;;;;;;;;;;;;;;;8.52;51.76;100708.41;6188827;22;19920;-77
2021/01/07 00:58:07;;;;;;;;;;;;;;;8.50;52.25;100704.97;6163111;23;19924;-78
2021/01/07 01:00:34;;;;;;;;;;;;;;;8.49;51.70;100699.72;6183163;23;19920;-78
2021/01/07 01:03:01;;;;;;;;;;;;;;;8.47;51.82;100697.13;6186951;23;19920;-78
2021/01/07 01:05:28;;;;;;;;;;;;;;;8.48;51.93;100696.19;6162009;23;19968;-77
2021/01/07 01:07:56;;;;;;;;;;;;;;;8.49;52.33;100699.72;6188651;23;19999;-78
2021/01/07 01:10:23;;;;;;;;;;;;;;;8.51;52.46;100697.91;6190649;22;19921;-78
2021/01/07 01:12:50;;;;;;;;;;;;;;;8.52;52.09;100695.25;6161147;22;19977;-78
2021/01/07 01:15:17;;;;;;;;;;;;;;;8.55;52.17;100697.84;6184900;23;19930;-78
2021/01/07 01:17:44;;;;;;;;;;;;;;;8.55;52.19;100695.19;6189056;23;19935;-78
2021/01/07 01:20:12;;;;;;;;;;;;;;;8.58;52.19;100699.53;6162579;23;19924;-78
2021/01/07 01:22:40;;;;;;;;;;;;;;;8.61;52.37;100695.06;6296084;22;19946;-78
2021/01/07 01:25:10;;;;;;;;;;;;;;;8.66;51.73;100694.97;6288184;22;19922;-78
2021/01/07 01:27:37;;;;;;;;;;;;;;;8.68;52.16;100692.31;6313324;22;19919;-78
2021/01/07 01:30:05;;;;;;;;;;;;;;;8.72;51.61;100697.50;6313049;22;19944;-78
2021/01/07 01:32:32;;;;;;;;;;;;;;;8.75;51.95;100696.56;6316185;22;19923;-78
2021/01/07 01:34:58;;;;;;;;;;;;;;;8.75;52.07;100699.22;6315563;22;19923;-78
2021/01/07 01:37:25;;;;;;;;;;;;;;;8.77;51.54;100695.63;6317093;22;19971;-78
2021/01/07 01:39:52;;;;;;;;;;;;;;;8.77;51.71;100686.84;6288091;22;19934;-78
2021/01/07 01:42:24;;;;;;;;;;;;;;;8.78;52.01;100685.94;6312844;22;19919;-78
2021/01/07 01:44:51;;;;;;;;;;;;;;;8.80;51.78;100695.56;6310017;22;19919;-78
2021/01/07 01:47:18;;;;;;;;;;;;;;;8.92;50.72;100693.56;6289349;22;20317;-77
2021/01/07 01:49:46;;;;;;;;;;;;;;;9.07;49.54;100698.50;6309464;22;20344;-78
2021/01/07 01:52:14;;;;;;;;;;;;;;;9.16;48.27;100693.94;6313660;22;19974;-78
2021/01/07 01:54:41;;;;;;;;;;;;;;;9.22;46.90;100689.38;6308705;22;19922;-78
2021/01/07 01:57:08;;;;;;;;;;;;;;;9.28;46.10;100691.00;6283399;22;19923;-78
2021/01/07 01:59:36;;;;;;;;;;;;;;;9.30;45.87;100692.72;6314635;22;19946;-77
2021/01/07 02:02:05;;;;;;;;;;;;;;;9.41;45.31;100694.25;6315681;22;19919;-77
2021/01/07 02:04:32;;;;;;;;;;;;;;;9.47;44.67;100691.47;6315160;22;19970;-78
2021/01/07 02:06:58;;;;;;;;;;;;;;;9.50;43.69;100686.09;6287413;22;19923;-78
2021/01/07 02:09:26;;;;;;;;;;;;;;;9.52;43.49;100691.34;6284390;22;19962;-78
2021/01/07 02:11:52;;;;;;;;;;;;;;;9.32;44.01;100681.25;6311920;22;19919;-77
2021/01/07 02:14:19;;;;;;;;;;;;;;;9.20;44.32;100687.69;6314408;22;19923;-77
2021/01/07 02:16:47;;;;;;;;;;;;;;;9.11;45.53;100686.13;6315886;22;19923;-77
2021/01/07 02:19:14;;;;;;;;;;;;;;;9.03;45.77;100686.28;6315600;22;19953;-78
2021/01/07 02:21:42;;;;;;;;;;;;;;;8.96;46.45;100685.53;6273218;22;19919;-78
2021/01/07 02:24:10;;;;;;;;;;;;;;;8.94;47.11;100683.84;6183925;23;19925;-78
2021/01/07 02:26:36;;;;;;;;;;;;;;;8.92;47.31;100683.03;6184135;23;19920;-78
2021/01/07 02:29:03;;;;;;;;;;;;;;;8.89;47.34;100683.06;6189077;23;19999;-78
2021/01/07 02:31:30;;;;;;;;;;;;;;;8.88;47.82;100684.00;6163131;22;19951;-77
2021/01/07 02:33:57;;;;;;;;;;;;;;;8.86;47.71;100677.88;6190015;23;19920;-78
2021/01/07 02:36:24;;;;;;;;;;;;;;;8.85;48.38;100681.41;6189047;23;19920;-78
2021/01/07 02:38:52;;;;;;;;;;;;;;;8.84;48.65;100674.38;6180262;23;19921;-78
2021/01/07 02:41:18;;;;;;;;;;;;;;;8.80;48.44;100679.72;6159940;22;20353;-78
2021/01/07 02:43:45;;;;;;;;;;;;;;;8.78;49.10;100673.59;6186916;23;20011;-78
2021/01/07 02:46:12;;;;;;;;;;;;;;;8.76;49.55;100674.53;6187269;23;20076;-78
2021/01/07 02:48:39;;;;;;;;;;;;;;;8.74;49.06;100671.94;6187439;23;19931;-77
2021/01/07 02:51:06;;;;;;;;;;;;;;;8.74;49.65;100671.09;6186074;23;19924;-77
2021/01/07 02:53:33;;;;;;;;;;;;;;;8.70;49.41;100674.69;6182899;23;19936;-77
2021/01/07 02:56:01;;;;;;;;;;;;;;;8.71;49.25;100668.53;6163539;23;19920;-78
2021/01/07 02:58:37;;;;;;;;;;;;;;;8.68;49.82;100669.44;6189770;23;19924;-78
2021/01/07 03:01:04;;;;;;;;;;;;;;;8.66;49.86;100673.03;6189719;23;19930;-78
2021/01/07 03:03:31;;;;;;;;;;;;;;;8.64;50.38;100671.28;6187881;23;19924;-78
2021/01/07 03:05:58;;;;;;;;;;;;;;;8.64;50.07;100676.56;6185187;23;19921;-78
2021/01/07 03:08:25;;;;;;;;;;;;;;;8.60;50.31;100674.88;6185382;23;20178;-77
2021/01/07 03:10:52;;;;;;;;;;;;;;;8.60;50.66;100672.25;6189510;23;19927;-77
2021/01/07 03:13:19;;;;;;;;;;;;;;;8.57;50.58;100674.06;6188347;23;19921;-77
2021/01/07 03:15:46;;;;;;;;;;;;;;;8.55;50.85;100670.56;6189592;23;19930;-77
2021/01/07 03:18:13;;;;;;;;;;;;;;;8.54;50.93;100676.78;6187479;23;19935;-77
2021/01/07 03:20:40;;;;;;;;;;;;;;;8.53;50.91;100673.25;6180832;23;19952;-77
2021/01/07 03:23:07;;;;;;;;;;;;;;;8.52;50.85;100671.50;6186406;23;19951;-78
2021/01/07 03:25:34;;;;;;;;;;;;;;;8.48;50.68;100675.09;6162937;23;19952;-78
2021/01/07 03:28:01;;;;;;;;;;;;;;;8.48;50.68;100667.19;6189443;23;19943;-78
2021/01/07 03:30:28;;;;;;;;;;;;;;;8.45;51.51;100673.41;6189054;23;19924;-78
2021/01/07 03:32:56;;;;;;;;;;;;;;;8.46;51.09;100663.75;6185103;23;19927;-78
2021/01/07 03:35:23;;;;;;;;;;;;;;;8.42;50.80;100665.53;6158579;23;19932;-78
2021/01/07 03:37:51;;;;;;;;;;;;;;;8.41;51.14;100668.22;6185905;22;19925;-78
2021/01/07 03:40:18;;;;;;;;;;;;;;;8.40;51.50;100669.94;6188421;23;19950;-78
2021/01/07 03:42:45;;;;;;;;;;;;;;;8.42;51.59;100665.53;6186844;23;19929;-78
2021/01/07 03:45:12;;;;;;;;;;;;;;;8.40;51.31;100669.94;6189327;23;19935;-78
2021/01/07 03:47:40;;;;;;;;;;;;;;;8.43;51.33;100669.03;6159543;23;19942;-77
2021/01/07 03:50:08;;;;;;;;;;;;;;;8.42;51.45;100664.69;6183890;23;19947;-78
2021/01/07 03:52:35;;;;;;;;;;;;;;;8.45;51.61;100669.88;6190091;23;19946;-78
2021/01/07 03:55:02;;;;;;;;;;;;;;;8.48;51.39;100664.56;6190467;23;19931;-78
2021/01/07 03:57:29;;;;;;;;;;;;;;;8.49;51.76;100668.94;6190495;23;19924;-78
2021/01/07 03:59:56;;;;;;;;;;;;;;;8.50;51.70;100659.25;6163700;23;19924;-78
2021/01/07 04:02:22;;;;;;;;;;;;;;;8.56;51.51;100664.41;6159938;23;19928;-78
2021/01/07 04:04:50;;;;;;;;;;;;;;;8.59;51.47;100659.09;6185422;23;19935;-78
2021/01/07 04:07:17;;;;;;;;;;;;;;;8.59;51.20;100659.09;6190350;23;19921;-78
2021/01/07 04:09:44;;;;;;;;;;;;;;;8.60;51.34;100659.06;6189106;23;19921;-78
2021/01/07 04:12:11;;;;;;;;;;;;;;;8.64;51.21;100660.72;6190057;23;19947;-78
2021/01/07 04:14:38;;;;;;;;;;;;;;;8.66;51.64;100657.19;6162157;23;19924;-78
2021/01/07 04:17:05;;;;;;;;;;;;;;;8.65;51.31;100656.31;6184937;23;20341;-78
2021/01/07 04:19:32;;;;;;;;;;;;;;;8.69;51.38;100659.75;6186853;23;19924;-78
2021/01/07 04:22:00;;;;;;;;;;;;;;;8.69;51.59;100654.50;6187045;23;19920;-78
2021/01/07 04:24:27;;;;;;;;;;;;;;;8.68;51.56;100653.63;6185571;23;19938;-78
2021/01/07 04:26:54;;;;;;;;;;;;;;;8.70;51.32;100657.09;6185734;23;19924;-78
2021/01/07 04:29:21;;;;;;;;;;;;;;;8.66;51.23;100650.13;6185439;23;19920;-78
2021/01/07 04:31:48;;;;;;;;;;;;;;;8.67;52.02;100657.16;6183961;23;19947;-78
2021/01/07 04:34:15;;;;;;;;;;;;;;;8.66;51.62;100658.06;6160324;23;19920;-78
2021/01/07 04:36:42;;;;;;;;;;;;;;;8.66;51.72;100654.56;6187994;23;19928;-78
2021/01/07 04:39:09;;;;;;;;;;;;;;;8.64;51.85;100650.19;6159978;22;19946;-78
2021/01/07 04:41:37;;;;;;;;;;;;;;;8.63;51.62;100651.06;6187427;23;19928;-78
2021/01/07 04:44:04;;;;;;;;;;;;;;;8.61;52.30;100652.88;6184223;23;19931;-78
2021/01/07 04:46:32;;;;;;;;;;;;;;;8.61;51.54;100650.22;6183077;23;19968;-78
2021/01/07 04:48:59;;;;;;;;;;;;;;;8.62;51.79;100648.47;6161845;23;19921;-78
2021/01/07 04:51:26;;;;;;;;;;;;;;;8.58;51.76;100645.03;6187877;23;19920;-78
2021/01/07 04:53:53;;;;;;;;;;;;;;;8.59;52.00;100645.91;6162259;23;19924;-79
2021/01/07 04:56:21;;;;;;;;;;;;;;;8.60;52.05;100648.50;6187350;23;19927;-78
2021/01/07 04:58:48;;;;;;;;;;;;;;;8.59;52.21;100643.28;6159788;23;19921;-78
2021/01/07 05:01:15;;;;;;;;;;;;;;;8.58;52.06;100638.91;6182761;23;19920;-78
2021/01/07 05:03:44;;;;;;;;;;;;;;;8.55;52.30;100642.47;6163639;23;19920;-78
2021/01/07 05:06:12;;;;;;;;;;;;;;;8.54;51.88;100645.13;6189208;23;19920;-78
2021/01/07 05:08:38;;;;;;;;;;;;;;;8.53;52.15;100638.97;6163158;23;19920;-78
2021/01/07 05:11:06;;;;;;;;;;;;;;;8.52;52.19;100637.22;6188138;23;19924;-78
2021/01/07 05:13:34;;;;;;;;;;;;;;;8.64;51.61;100644.03;6157468;23;20007;-78
2021/01/07 05:16:01;;;;;;;;;;;;;;;8.78;50.48;100643.75;6189440;23;19940;-77
2021/01/07 05:18:27;;;;;;;;;;;;;;;8.83;49.51;100639.22;6189110;23;19947;-77
2021/01/07 05:20:54;;;;;;;;;;;;;;;8.91;47.83;100639.06;6189026;23;19972;-78
2021/01/07 05:23:21;;;;;;;;;;;;;;;8.94;46.73;100634.59;6188368;23;19934;-77
2021/01/07 05:25:55;;;;;;;;;;;;;;;9.00;45.98;100638.00;6187373;23;19925;-78
2021/01/07 05:28:22;;;;;;;;;;;;;;;8.91;46.52;100634.66;6187296;22;19940;-78
2021/01/07 05:30:50;;;;;;;;;;;;;;;8.82;47.47;100634.84;6188058;23;19938;-78
2021/01/07 05:33:18;;;;;;;;;;;;;;;8.78;48.71;100641.97;6188522;23;19930;-78
2021/01/07 05:35:44;;;;;;;;;;;;;;;8.80;48.06;100648.09;6189388;23;19927;-78
2021/01/07 05:38:11;;;;;;;;;;;;;;;8.90;47.59;100642.59;6186893;23;20011;-78
2021/01/07 05:40:39;;;;;;;;;;;;;;;8.99;46.44;100639.75;6185155;23;19924;-78
2021/01/07 05:43:08;;;;;;;;;;;;;;;9.05;45.51;100636.09;6186918;23;19951;-78
2021/01/07 05:45:36;;;;;;;;;;;;;;;9.09;44.86;100635.16;6190430;23;19932;-78
2021/01/07 05:48:04;;;;;;;;;;;;;;;9.13;44.39;100628.91;6187808;23;20314;-78
2021/01/07 05:50:35;;;;;;;;;;;;;;;9.18;43.35;100632.28;6161995;23;19920;-78
2021/01/07 05:53:03;;;;;;;;;;;;;;;9.11;44.04;100631.56;6186687;23;19943;-77
2021/01/07 05:55:30;;;;;;;;;;;;;;;8.92;44.23;100633.75;6157096;23;19964;-77
2021/01/07 05:58:01;;;;;;;;;;;;;;;8.88;44.64;100636.50;6161401;23;19928;-78
2021/01/07 06:00:30;;;;;;;;;;;;;;;8.83;45.33;100646.28;6162541;23;19931;-78
2021/01/07 06:02:58;;;;;;;;;;;;;;;8.82;45.56;100644.56;6164666;23;19924;-78
2021/01/07 06:05:27;;;;;;;;;;;;;;;8.84;46.21;100635.69;6189672;23;19924;-78
2021/01/07 06:07:55;;;;;;;;;;;;;;;8.86;46.68;100639.16;6159042;23;19985;-78
2021/01/07 06:10:22;;;;;;;;;;;;;;;8.85;47.05;100641.84;6186674;23;20211;-78
2021/01/07 06:12:50;;;;;;;;;;;;;;;8.88;47.17;100639.16;6163317;23;19920;-77
2021/01/07 06:15:18;;;;;;;;;;;;;;;8.87;48.04;100640.91;6189115;23;19924;-78
2021/01/07 06:17:45;;;;;;;;;;;;;;;8.89;47.43;100639.09;6163449;23;19924;-78
2021/01/07 06:20:13;;;;;;;;;;;;;;;8.87;47.78;100637.41;6162421;22;19927;-78
2021/01/07 06:22:43;;;;;;;;;;;;;;;8.89;48.18;100646.13;6185591;23;19928;-78
2021/01/07 06:25:11;;;;;;;;;;;;;;;8.89;47.93;100646.13;6182273;23;19940;-78
2021/01/07 06:27:41;;;;;;;;;;;;;;;8.92;47.85;100639.03;6188623;23;19925;-78
2021/01/07 06:30:27;;;;;;;;;;;;;;;8.89;48.81;100641.75;6186860;23;19931;-78
2021/01/07 06:33:00;;;;;;;;;;;;;;;8.90;48.41;100634.69;6188600;23;19924;-79
2021/01/07 06:35:31;;;;;;;;;;;;;;;8.90;48.83;100640.81;6186903;23;19935;-78
2021/01/07 06:38:00;;;;;;;;;;;;;;;8.91;49.02;100641.72;6157921;23;19924;-79
2021/01/07 06:40:27;;;;;;;;;;;;;;;8.87;49.11;100638.25;6187251;23;19951;-78
2021/01/07 06:42:55;;;;;;;;;;;;;;;8.88;49.04;100644.44;6188915;23;19969;-78
2021/01/07 06:45:23;;;;;;;;;;;;;;;8.87;49.29;100640.03;6162884;23;19921;-79
2021/01/07 06:47:52;;;;;;;;;;;;;;;8.85;49.85;100647.09;6188412;23;19920;-79
2021/01/07 06:50:18;;;;;;;;;;;;;;;8.82;49.40;100648.03;6185566;23;19920;-79
2021/01/07 06:52:46;;;;;;;;;;;;;;;8.83;49.44;100655.06;6184228;23;19935;-77
2021/01/07 06:55:15;;;;;;;;;;;;;;;8.80;49.48;100648.09;6188312;23;19939;-77
2021/01/07 06:57:43;;;;;;;;;;;;;;;8.82;49.57;100649.81;6189079;23;19924;-78
2021/01/07 07:00:11;;;;;;;;;;;;;;;8.79;50.04;100653.41;6162753;23;19951;-78
2021/01/07 07:02:38;;;;;;;;;;;;;;;8.78;49.57;100649.00;6190217;23;19931;-78
2021/01/07 07:05:07;;;;;;;;;;;;;;;8.77;49.95;100652.53;6158930;22;19924;-78
2021/01/07 07:07:52;;;;;;;;;;;;;;;8.73;50.19;100648.25;6184780;23;19924;-77
2021/01/07 07:10:43;;;;;;;;;;;;;;;8.72;49.95;100657.94;6194289;23;19930;-78
2021/01/07 07:13:17;;;;;;;;;;;;;;;8.71;50.34;100656.19;6195421;23;19935;-78
2021/01/07 07:15:45;;;;;;;;;;;;;;;8.70;50.56;100661.50;6188636;23;19920;-77
2021/01/07 07:18:12;;;;;;;;;;;;;;;8.69;50.40;100663.25;6186234;23;20285;-78
2021/01/07 07:20:40;;;;;;;;;;;;;;;8.69;50.40;100654.50;6181557;23;19921;-78
2021/01/07 07:23:12;;;;;;;;;;;;;;;8.68;50.14;100656.28;6158685;23;19924;-78
2021/01/07 07:25:40;;;;;;;;;;;;;;;8.66;50.27;100662.47;6186735;23;19959;-77
2021/01/07 07:28:10;;;;;;;;;;;;;;;8.62;50.72;100667.78;6162923;23;19972;-77
2021/01/07 07:30:40;;;;;;;;;;;;;;;8.63;50.47;100671.31;6188695;23;19973;-78
2021/01/07 07:33:07;;;;;;;;;;;;;;;8.62;50.37;100665.16;6187995;23;19934;-77
2021/01/07 07:35:35;;;;;;;;;;;;;;;8.62;50.54;100669.56;6183179;23;19977;-77
2021/01/07 07:38:09;;;;;;;;;;;;;;;8.61;50.93;100671.31;6160961;22;19924;-77
2021/01/07 07:40:37;;;;;;;;;;;;;;;8.59;51.26;100672.28;6161628;23;19928;-78
2021/01/07 07:43:04;;;;;;;;;;;;;;;8.58;50.99;100678.44;6187643;23;19932;-77
2021/01/07 07:45:32;;;;;;;;;;;;;;;8.58;51.30;100673.19;6184619;23;19928;-79
2021/01/07 07:48:00;;;;;;;;;;;;;;;8.55;51.24;100678.50;6183547;23;19928;-78
2021/01/07 07:50:28;;;;;;;;;;;;;;;8.54;51.10;100677.63;6157204;23;19992;-78
2021/01/07 07:53:03;;;;;;;;;;;;;;;8.55;51.33;100686.41;6160858;23;20011;-78
2021/01/07 07:55:33;;;;;;;;;;;;;;;8.52;51.22;100684.69;6185391;23;20277;-78
2021/01/07 08:23:27;;;;;;;;;;;;;;;8.54;51.56;100693.44;6184313;23;20320;-79
2021/01/07 08:26:02;;;;;;;;;;;;;;;8.59;51.17;100688.97;6224660;23;19946;-77
2021/01/07 08:39:16;;;;;;;;;;;;;;;;;;;;;
2021/01/07 09:04:50;;;;;;;;;;;;;;;10.07;44.29;100689.09;6143187;23;19940;-79
2021/01/07 09:07:46;;;;;;;;;;;;;;;10.29;44.15;100686.75;6180468;23;20145;-80
2021/01/07 09:10:25;;;;;;;;;;;;;;;10.25;43.65;100682.44;6153937;23;20238;-79
2021/01/07 09:12:52;;;;;;;;;;;;;;;10.24;43.74;100689.53;6153024;23;19924;-79
2021/01/07 09:15:24;;;;;;;;;;;;;;;10.14;43.81;100686.25;6148763;23;19924;-78
2021/01/07 09:17:52;;;;;;;;;;;;;;;10.09;44.23;100677.56;6176450;23;19924;-78
2021/01/07 09:20:21;;;;;;;;;;;;;;;10.06;44.80;100685.59;6178892;23;19925;-78
2021/01/07 09:22:49;;;;;;;;;;;;;;;10.00;45.50;100690.16;6182122;23;19946;-79
2021/01/07 09:25:18;;;;;;;;;;;;;;;9.99;45.82;100694.56;6154583;23;19929;-78
2021/01/07 09:27:45;;;;;;;;;;;;;;;9.96;45.82;100698.16;6180051;23;19928;-79
2021/01/07 09:30:13;;;;;;;;;;;;;;;9.96;45.92;100692.03;6148591;22;19925;-79
2021/01/07 09:32:44;;;;;;;;;;;;;;;9.95;46.50;100687.63;6155810;23;20496;-79
2021/01/07 09:35:11;;;;;;;;;;;;;;;9.95;46.29;100682.34;6182081;23;19924;-78
2021/01/07 09:37:59;;;;;;;;;;;;;;;9.93;46.77;100687.69;6182419;23;19972;-79
2021/01/07 09:40:26;;;;;;;;;;;;;;;9.96;46.95;100684.09;6156654;23;20409;-79
2021/01/07 09:42:53;;;;;;;;;;;;;;;9.99;47.04;100686.63;6153337;22;20007;-79
2021/01/07 09:45:20;;;;;;;;;;;;;;;10.03;47.08;100688.28;6176959;23;19920;-78
2021/01/07 09:47:48;;;;;;;;;;;;;;;10.05;47.16;100685.63;6182320;22;20391;-79
2021/01/07 09:50:15;;;;;;;;;;;;;;;10.13;47.10;100683.66;6155263;22;19924;-79
2021/01/07 09:52:45;;;;;;;;;;;;;;;10.22;46.65;100688.69;6181520;23;19924;-79
2021/01/07 09:55:15;;;;;;;;;;;;;;;10.26;46.98;100681.56;6182130;23;19924;-79
2021/01/07 09:57:48;;;;;;;;;;;;;;;10.27;46.69;100683.28;6153420;23;20264;-79
2021/01/07 10:00:16;;;;;;;;;;;;;;;10.32;46.53;100684.00;6178874;22;19924;-79
2021/01/07 10:02:43;;;;;;;;;;;;;;;10.37;46.63;100676.00;6182230;23;19924;-79
2021/01/07 10:05:11;;;;;;;;;;;;;;;10.40;46.67;100681.19;6179982;23;19954;-80
2021/01/07 10:10:40;;;;;;;;;;;;;;;10.49;46.72;100667.69;6181244;23;19989;-79
2021/01/07 10:13:08;;;;;;;;;;;;;;;10.51;46.28;100673.84;6152655;23;20380;-79
2021/01/07 10:15:51;;;;;;;;;;;;;;;10.49;46.69;100664.19;6181734;23;19928;-79
2021/01/07 10:24:41;;;;;;;;;;;;;;;10.52;46.93;100658.81;6154775;23;20005;-79
2021/01/07 10:31:21;;;;;;;;;;;;;;;10.54;46.68;100657.88;6175523;23;19948;-79
2021/01/07 10:37:45;;;;;;;;;;;;;;;10.62;47.12;100662.94;5116475;27;19924;-80
2021/01/07 10:40:15;;;;;;;;;;;;;;;10.63;46.93;100656.75;5105449;27;19927;-80
2021/01/07 10:42:47;;;;;;;;;;;;;;;10.62;46.82;100658.53;5108524;27;21049;-81
2021/01/07 10:45:15;;;;;;;;;;;;;;;10.67;46.97;100663.66;5110062;27;19928;-80
2021/01/07 11:12:30;;;;;;;;;;;;;;;;;;;;;
2021/01/07 11:26:28;;;;;;;;;;;;;;;;;;;;;
2021/01/07 11:29:59;;;;;;;;;;;;;;;;;;;;;
2021/01/07 11:33:10;;;;;;;;;;;;;;;;;;;;;
2021/01/07 11:35:53;;;;;;;;;;;;;;;10.85;47.25;100626.97;4934441;28;20025;-80
2021/01/07 11:46:59;;;;;;;;;;;;;;;10.78;47.84;100615.72;4956168;28;20429;-81
2021/01/07 11:57:46;;;;;;;;;;;;;;;10.70;48.15;100625.69;4957346;28;19942;-81
2021/01/07 12:00:55;;;;;;;;;;;;;;;10.66;48.36;100624.91;4977418;28;19926;-81
2021/01/07 12:10:44;;;;;;;;;;;;;;;10.49;48.81;100608.66;4982968;28;19937;-77
2021/01/07 12:17:40;;;;;;;;;;;;;;;10.42;49.08;100616.75;5022897;28;19929;-79
2021/01/07 12:21:00;;;;;;;;;;;;;;;;;;;;;
2021/01/07 12:28:32;;;;;;;;;;;;;;;10.28;49.33;100603.94;5014370;28;20007;-79
2021/01/07 13:20:43;;;;;;;;;;;;;;;10.25;42.55;100595.22;4826426;29;19938;-80
2021/01/07 13:34:52;;;;;;;;;;;;;;;9.79;44.36;100597.34;4907902;29;19937;-81
2021/01/07 13:48:10;;;;;;;;;;;;;;;9.62;46.62;100605.69;4885151;29;20476;-84
2021/01/07 14:40:10;;;;;;;;;;;;;;;8.80;50.45;100615.56;5989674;23;20126;-80
2021/01/07 14:58:11;;;;;;;;;;;;;;;8.56;50.81;100625.75;5028155;23;20030;-82
2021/01/07 17:25:19;;;;;;;;;;;;;;;8.62;50.25;100611.56;4695222;30;19946;-79
2021/01/07 17:51:34;;;;;;;;;;;;;;;8.40;51.10;100619.88;4856768;29;19977;-78
2021/01/07 17:59:02;;;;;;;;;;;;;;;8.39;51.32;100614.63;5050727;23;19938;-78
2021/01/07 18:01:46;;;;;;;;;;;;;;;8.42;52.74;100609.31;4855718;29;19932;-78
2021/01/07 18:04:31;;;;;;;;;;;;;;;8.35;53.01;100613.81;5167028;23;21108;-79
2021/01/07 18:10:23;;;;;;;;;;;;;;;8.33;52.54;100612.16;5178649;23;19995;-75
2021/01/07 18:13:00;;;;;;;;;;;;;;;8.29;52.65;100614.81;4899909;29;20022;-79
2021/01/07 18:21:16;;;;;;;;;;;;;;;8.18;52.38;100614.19;5607541;23;19928;-79
2021/01/07 18:24:49;;;;;;;;;;;;;;;8.20;52.13;100612.38;4864623;29;20032;-79
2021/01/07 19:01:05;;;;;;;;;;;;;;;8.53;51.59;100609.97;4859494;29;19936;-77
2021/01/07 19:03:32;;;;;;;;;;;;;;;8.52;51.82;100616.13;4890002;29;20006;-77
2021/01/07 19:06:04;;;;;;;;;;;;;;;8.54;51.59;100618.78;4877822;29;19947;-78
2021/01/07 19:08:31;;;;;;;;;;;;;;;8.53;51.40;100617.03;4873878;29;19932;-79
2021/01/07 19:10:58;;;;;;;;;;;;;;;8.55;51.89;100618.72;4887402;29;19935;-76
2021/01/07 19:13:26;;;;;;;;;;;;;;;8.53;52.11;100617.88;4893775;29;19936;-78
2021/01/07 19:15:53;;;;;;;;;;;;;;;8.60;51.71;100611.59;4879096;29;19980;-76
2021/01/07 19:18:21;;;;;;;;;;;;;;;8.73;51.17;100614.84;4877830;29;19946;-76
2021/01/07 19:20:49;;;;;;;;;;;;;;;8.71;51.46;100610.50;4870936;29;20356;-76
2021/01/07 19:23:16;;;;;;;;;;;;;;;8.73;51.25;100612.22;4872356;29;19963;-77
2021/01/07 19:25:46;;;;;;;;;;;;;;;8.74;50.80;100607.78;4887221;29;20018;-77
2021/01/07 19:28:13;;;;;;;;;;;;;;;8.87;49.52;100613.66;4878296;29;19951;-77
2021/01/07 19:30:40;;;;;;;;;;;;;;;8.92;48.59;100606.50;4888741;29;19966;-77
2021/01/07 19:33:07;;;;;;;;;;;;;;;8.97;47.60;100607.28;4870218;29;19936;-77
2021/01/07 19:35:34;;;;;;;;;;;;;;;9.04;46.27;100602.72;4886394;29;19963;-77
2021/01/07 19:38:02;;;;;;;;;;;;;;;9.07;45.83;100602.66;4873972;29;19956;-75
2021/01/07 19:40:30;;;;;;;;;;;;;;;9.09;45.03;100603.50;4877543;29;20010;-76
2021/01/07 19:42:57;;;;;;;;;;;;;;;9.11;44.48;100605.19;4880641;29;19977;-76
2021/01/07 19:45:24;;;;;;;;;;;;;;;9.17;43.96;100600.66;4880135;29;19932;-77
2021/01/07 19:47:54;;;;;;;;;;;;;;;9.18;43.54;100597.09;4889873;29;19931;-76
2021/01/07 19:50:24;;;;;;;;;;;;;;;9.14;43.78;100599.81;4877040;29;19931;-76
2021/01/07 19:52:53;;;;;;;;;;;;;;;9.01;43.06;100598.38;4887023;29;20002;-77
2021/01/07 19:55:24;;;;;;;;;;;;;;;8.85;44.65;100605.78;4863508;29;19935;-76
2021/01/07 19:57:52;;;;;;;;;;;;;;;8.75;44.82;100605.09;4890758;29;19943;-76
2021/01/07 20:00:20;;;;;;;;;;;;;;;8.68;45.34;100600.00;4877775;29;20002;-76
2021/01/07 20:02:47;;;;;;;;;;;;;;;8.62;46.00;100609.78;4877967;29;19928;-76
2021/01/07 20:05:15;;;;;;;;;;;;;;;8.57;47.00;100616.06;4897839;29;19945;-76
2021/01/07 20:07:43;;;;;;;;;;;;;;;8.53;46.69;100614.38;4874125;29;19932;-76
2021/01/07 20:10:11;;;;;;;;;;;;;;;8.52;47.54;100605.59;4873962;29;19936;-76
2021/01/07 20:12:43;;;;;;;;;;;;;;;8.46;47.47;100606.59;4880660;29;19999;-75
2021/01/07 20:15:11;;;;;;;;;;;;;;;8.44;47.44;100612.78;4884280;29;19932;-76
2021/01/07 20:17:38;;;;;;;;;;;;;;;8.43;48.38;100608.38;4876805;29;19931;-76
2021/01/07 20:20:06;;;;;;;;;;;;;;;8.40;47.94;100619.00;4880009;29;20401;-76
2021/01/07 20:22:35;;;;;;;;;;;;;;;8.37;48.47;100612.03;4875040;29;19940;-76
2021/01/07 20:25:04;;;;;;;;;;;;;;;8.37;48.84;100609.41;4876795;29;20363;-77
2021/01/07 20:27:31;;;;;;;;;;;;;;;8.35;48.88;100613.81;4894613;29;19932;-76
2021/01/07 20:29:58;;;;;;;;;;;;;;;8.29;49.04;100612.19;4878203;29;19959;-77
2021/01/07 20:32:26;;;;;;;;;;;;;;;8.30;48.74;100613.06;4879669;29;20032;-76
2021/01/07 20:34:54;;;;;;;;;;;;;;;8.27;49.24;100605.22;4878868;29;20122;-76
2021/01/07 20:37:23;;;;;;;;;;;;;;;8.25;49.11;100610.50;4903121;29;19931;-75
2021/01/07 20:39:50;;;;;;;;;;;;;;;8.24;49.84;100602.66;4896679;29;19991;-76
2021/01/07 20:42:18;;;;;;;;;;;;;;;8.22;49.47;100607.06;4880831;29;19996;-76
2021/01/07 20:44:45;;;;;;;;;;;;;;;8.18;49.93;100602.75;4891452;29;20010;-75
2021/01/07 20:47:13;;;;;;;;;;;;;;;8.14;50.04;100602.81;4891185;29;19935;-75
2021/01/07 20:49:43;;;;;;;;;;;;;;;8.13;50.27;100598.44;4873560;29;19932;-75
2021/01/07 20:52:10;;;;;;;;;;;;;;;8.11;50.46;100602.00;4894945;29;19932;-75
2021/01/07 20:54:37;;;;;;;;;;;;;;;8.09;49.96;100595.88;4884946;29;19931;-75
2021/01/07 20:57:07;;;;;;;;;;;;;;;8.08;50.50;100604.72;4863810;29;19927;-76
2021/01/07 20:59:33;;;;;;;;;;;;;;;8.04;50.40;100603.03;4882381;29;19932;-76
2021/01/07 21:02:01;;;;;;;;;;;;;;;8.05;50.43;100600.38;4877322;29;19991;-76
2021/01/07 21:04:30;;;;;;;;;;;;;;;8.07;50.42;100598.56;4892433;29;19932;-75
2021/01/07 21:06:59;;;;;;;;;;;;;;;8.09;50.50;100599.41;4877126;29;20405;-76
2021/01/07 21:09:27;;;;;;;;;;;;;;;8.09;50.83;100604.69;4895653;29;20401;-77
2021/01/07 21:11:57;;;;;;;;;;;;;;;8.11;50.87;100599.38;4881926;29;19936;-76
2021/01/07 21:14:25;;;;;;;;;;;;;;;8.15;50.42;100601.06;4883346;29;19956;-76
2021/01/07 21:16:52;;;;;;;;;;;;;;;8.17;50.43;100604.53;4877698;29;19938;-76
2021/01/07 21:19:20;;;;;;;;;;;;;;;8.20;50.47;100603.59;4880118;29;19935;-75
2021/01/07 21:21:57;;;;;;;;;;;;;;;8.22;50.68;100604.44;4877502;29;19938;-76
2021/01/07 21:24:29;;;;;;;;;;;;;;;8.23;50.58;100604.38;4883208;29;19931;-76